Time;durP1;ratioP1;P1;durP2;ratioP2;P2;SDS_P1;SDS_P2;PMS_P1;PMS_P2;Temp;Humidity;BMP_temperature;BMP_pressure;BME280_temperature;BME280_humidity;BME280_pressure;Samples;Min_cycle;Max_cycle;Signal;HPM_P1;HPM_P2
2023/06/11 00:03:06;;;;;;;4.60;2.30;;;;;;;16.66;100.00;98486.53;15281870;19;20098;-42
2023/06/11 00:08:31;;;;;;;4.57;2.50;;;;;;;16.58;100.00;98497.59;15242660;19;20098;-44
2023/06/11 00:13:56;;;;;;;2.70;2.28;;;;;;;16.51;100.00;98496.69;15274225;19;20698;-44
2023/06/11 00:19:28;;;;;;;3.95;2.20;;;;;;;16.42;100.00;98490.53;15272018;19;20354;-42
2023/06/11 00:24:54;;;;;;;4.60;2.10;;;;;;;16.39;100.00;98494.50;15276316;19;20362;-43
2023/06/11 00:30:20;;;;;;;3.33;1.95;;;;;;;16.38;100.00;98497.44;15276865;19;20473;-42
2023/06/11 00:35:47;;;;;;;4.90;2.20;;;;;;;16.44;100.00;98497.47;15275384;19;20018;-42
2023/06/11 00:41:20;;;;;;;3.20;2.25;;;;;;;16.44;100.00;98505.63;15271864;19;20037;-42
2023/06/11 00:46:48;;;;;;;5.53;2.20;;;;;;;16.42;100.00;98505.00;15266911;19;20010;-43
2023/06/11 00:52:18;;;;;;;3.65;2.08;;;;;;;16.37;100.00;98510.16;15272150;19;20470;-42
2023/06/11 00:57:43;;;;;;;3.50;2.30;;;;;;;16.30;100.00;98507.38;15286229;19;20014;-43
2023/06/11 01:03:17;;;;;;;2.58;2.38;;;;;;;16.21;100.00;98502.31;15281373;19;20434;-43
2023/06/11 01:08:44;;;;;;;2.80;2.50;;;;;;;16.07;100.00;98501.31;15285859;19;20015;-42
2023/06/11 01:14:16;;;;;;;4.05;2.33;;;;;;;15.93;100.00;98512.09;15285472;19;20019;-42
2023/06/11 01:19:54;;;;;;;2.70;2.50;;;;;;;15.85;100.00;98520.34;15281402;19;20680;-42
2023/06/11 01:25:39;;;;;;;4.43;3.03;;;;;;;15.75;100.00;98517.06;15286894;19;20014;-42
2023/06/11 01:31:13;;;;;;;4.70;2.92;;;;;;;15.66;100.00;98516.34;15290314;19;20647;-41
2023/06/11 01:36:39;;;;;;;3.00;2.70;;;;;;;15.59;100.00;98527.13;15288216;19;20018;-44
2023/06/11 01:42:05;;;;;;;3.28;2.70;;;;;;;15.51;100.00;98521.81;15287295;19;20078;-41
2023/06/11 01:47:32;;;;;;;4.05;2.97;;;;;;;15.43;100.00;98516.50;15290638;19;20030;-41
2023/06/11 01:52:57;;;;;;;4.75;2.88;;;;;;;15.35;100.00;98520.19;15281406;19;20014;-41
2023/06/11 01:58:22;;;;;;;4.97;2.80;;;;;;;15.27;100.00;98528.44;15284791;19;20729;-41
2023/06/11 02:03:49;;;;;;;3.05;2.75;;;;;;;15.21;100.00;98530.03;15286126;19;20035;-42
2023/06/11 02:09:14;;;;;;;4.57;2.80;;;;;;;15.13;100.00;98533.69;15288111;19;20093;-43
2023/06/11 02:14:39;;;;;;;2.88;2.60;;;;;;;15.06;100.00;98538.16;15285367;19;20033;-42
2023/06/11 02:20:08;;;;;;;3.90;3.17;;;;;;;14.97;100.00;98540.13;15283107;19;20007;-42
2023/06/11 02:25:33;;;;;;;3.50;3.20;;;;;;;14.89;100.00;98537.50;15280272;19;20038;-42
2023/06/11 02:30:58;;;;;;;5.22;2.80;;;;;;;14.82;100.00;98544.72;15282228;19;20022;-43
2023/06/11 02:36:26;;;;;;;2.92;2.63;;;;;;;14.75;100.00;98537.31;15284343;19;20357;-44
2023/06/11 02:41:51;;;;;;;4.05;2.88;;;;;;;14.67;100.00;98545.53;15286242;19;20021;-42
2023/06/11 02:47:16;;;;;;;6.03;2.95;;;;;;;14.62;100.00;98545.22;15283696;19;20525;-42
2023/06/11 02:52:43;;;;;;;3.30;3.00;;;;;;;14.57;100.00;98555.75;15292514;19;20011;-42
2023/06/11 02:58:08;;;;;;;3.25;2.85;;;;;;;14.49;100.00;98549.41;15282802;19;20016;-41
2023/06/11 03:03:33;;;;;;;4.93;2.75;;;;;;;14.44;100.00;98562.66;15280560;19;20014;-41
2023/06/11 03:09:06;;;;;;;3.40;2.80;;;;;;;14.40;100.00;98561.34;15288502;19;20007;-43
2023/06/11 03:14:30;;;;;;;6.10;2.90;;;;;;;14.37;100.00;98564.41;15284388;19;20019;-41
2023/06/11 03:19:55;;;;;;;3.38;2.95;;;;;;;14.34;100.00;98567.47;15282887;19;20014;-43
2023/06/11 03:25:23;;;;;;;4.05;2.90;;;;;;;14.28;100.00;98568.22;15283149;19;20018;-42
2023/06/11 03:30:48;;;;;;;3.88;3.00;;;;;;;14.24;100.00;98559.59;15280359;19;20010;-41
2023/06/11 03:36:13;;;;;;;3.25;2.60;;;;;;;14.20;100.00;98561.00;15281003;19;20010;-43
2023/06/11 03:41:43;;;;;;;4.50;3.00;;;;;;;14.16;100.00;98568.66;15280911;19;20022;-43
2023/06/11 03:47:10;;;;;;;3.60;3.07;;;;;;;14.13;100.00;98570.84;15279191;19;20022;-40
2023/06/11 03:52:35;;;;;;;6.20;3.15;;;;;;;14.11;100.00;98573.75;15281963;19;20034;-42
2023/06/11 03:58:02;;;;;;;3.15;2.85;;;;;;;14.07;100.00;98564.28;15284150;19;20011;-42
2023/06/11 04:03:27;;;;;;;3.28;2.70;;;;;;;14.09;100.00;98581.22;15275430;19;20018;-43
2023/06/11 04:08:52;;;;;;;3.20;2.80;;;;;;;14.15;100.00;98579.66;15280707;19;20029;-41
2023/06/11 04:14:20;;;;;;;4.53;3.35;;;;;;;14.17;100.00;98578.44;15274906;19;20022;-43
2023/06/11 04:19:44;;;;;;;6.55;3.05;;;;;;;14.15;100.00;98580.50;15278541;19;20023;-40
2023/06/11 04:25:11;;;;;;;4.68;3.08;;;;;;;14.22;100.00;98586.06;15278102;19;20025;-40
2023/06/11 04:30:39;;;;;;;3.35;2.80;;;;;;;14.26;100.00;98587.34;15277442;19;20660;-40
2023/06/11 04:36:05;;;;;;;3.30;2.80;;;;;;;14.35;100.00;98585.44;15283575;19;20903;-41
2023/06/11 04:41:32;;;;;;;3.40;2.50;;;;;;;14.43;100.00;98588.06;15289449;19;20045;-40
2023/06/11 04:47:00;;;;;;;4.45;3.05;;;;;;;14.56;100.00;98592.03;15284886;19;20029;-40
2023/06/11 04:52:26;;;;;;;3.78;2.80;;;;;;;14.66;100.00;98595.31;15289686;19;20036;-41
2023/06/11 04:57:54;;;;;;;3.33;2.60;;;;;;;14.79;100.00;98600.16;15290322;19;20019;-40
2023/06/11 05:03:21;;;;;;;4.63;2.90;;;;;;;14.91;100.00;98596.00;15281758;19;20021;-40
2023/06/11 05:08:46;;;;;;;4.05;2.70;;;;;;;15.04;100.00;98606.19;15288037;19;20053;-40
2023/06/11 05:14:11;;;;;;;3.95;2.67;;;;;;;15.17;100.00;98613.66;15287524;19;20015;-41
2023/06/11 05:19:39;;;;;;;2.92;2.50;;;;;;;15.31;100.00;98609.28;15289668;19;20022;-43
2023/06/11 05:25:04;;;;;;;5.25;3.00;;;;;;;15.41;100.00;98615.28;15287416;19;20014;-41
2023/06/11 05:30:36;;;;;;;5.10;2.70;;;;;;;15.55;100.00;98629.88;15284272;19;20022;-42
2023/06/11 05:36:04;;;;;;;4.28;3.20;;;;;;;15.65;100.00;98629.59;15275272;19;20007;-42
2023/06/11 05:41:29;;;;;;;4.50;3.00;;;;;;;15.74;100.00;98627.63;15279013;19;20010;-41
2023/06/11 05:46:54;;;;;;;3.97;3.05;;;;;;;15.83;100.00;98636.47;15281264;19;20371;-41
2023/06/11 05:52:22;;;;;;;3.85;2.50;;;;;;;16.00;100.00;98627.13;15286426;19;20384;-42
2023/06/11 05:57:48;;;;;;;4.50;1.80;;;;;;;16.36;100.00;98602.81;15285732;19;20007;-42
2023/06/11 06:03:13;;;;;;;4.63;1.73;;;;;;;16.77;100.00;98600.25;15277837;19;20033;-42
2023/06/11 06:08:41;;;;;;;8.27;2.50;;;;;;;17.09;100.00;98600.72;15274686;19;20085;-42
2023/06/11 06:14:13;;;;;;;5.28;1.95;;;;;;;17.39;100.00;98599.63;15279300;19;20562;-43
2023/06/11 06:19:38;;;;;;;3.40;1.95;;;;;;;17.69;100.00;98602.09;15286674;19;20010;-41
2023/06/11 06:25:05;;;;;;;3.50;1.70;;;;;;;17.94;100.00;98594.22;15282790;19;20018;-42
2023/06/11 06:30:32;;;;;;;5.22;1.83;;;;;;;18.18;100.00;98601.00;15283049;19;20010;-42
2023/06/11 06:35:57;;;;;;;3.50;1.88;;;;;;;18.40;100.00;98598.13;15279294;19;20023;-44
2023/06/11 06:41:26;;;;;;;2.35;1.55;;;;;;;18.71;100.00;98593.09;15273910;19;20501;-42
2023/06/11 06:46:56;;;;;;;2.65;1.52;;;;;;;18.95;100.00;98602.56;15270445;19;20023;-47
2023/06/11 06:52:21;;;;;;;3.70;1.60;;;;;;;19.07;100.00;98598.16;15279878;19;20110;-48
2023/06/11 06:57:48;;;;;;;2.38;1.65;;;;;;;19.25;100.00;98594.75;15280483;19;20100;-52
2023/06/11 07:03:14;;;;;;;2.50;1.50;;;;;;;19.39;100.00;98600.19;15278026;19;20017;-46
2023/06/11 07:08:39;;;;;;;4.75;1.70;;;;;;;19.55;100.00;98599.72;15282884;19;20463;-46
2023/06/11 07:14:15;;;;;;;4.40;1.50;;;;;;;19.74;100.00;98590.81;15272430;19;20038;-46
2023/06/11 07:19:40;;;;;;;5.72;1.67;;;;;;;19.91;100.00;98593.91;15272873;19;20663;-47
2023/06/11 07:25:06;;;;;;;4.47;1.40;;;;;;;20.08;100.00;98599.72;15278913;19;20014;-47
2023/06/11 07:30:35;;;;;;;4.55;1.40;;;;;;;20.25;100.00;98603.63;15282041;19;20011;-50
2023/06/11 07:36:00;;;;;;;3.95;1.33;;;;;;;20.43;100.00;98596.56;15276949;19;20018;-46
2023/06/11 07:41:25;;;;;;;4.22;1.30;;;;;;;20.64;100.00;98600.84;15279462;19;20017;-49
2023/06/11 07:46:54;;;;;;;3.08;1.10;;;;;;;20.82;98.17;98594.63;15271379;19;20022;-49
2023/06/11 07:52:20;;;;;;;4.40;1.35;;;;;;;21.03;93.96;98592.53;15272940;19;20014;-50
2023/06/11 07:57:52;;;;;;;5.20;1.50;;;;;;;21.22;84.21;98605.22;15279829;19;20010;-48
2023/06/11 08:03:20;;;;;;;4.03;1.40;;;;;;;21.39;78.14;98590.88;15277570;19;20211;-47
2023/06/11 08:08:45;;;;;;;3.10;1.30;;;;;;;21.56;77.27;98591.13;15279677;19;20026;-47
2023/06/11 08:14:11;;;;;;;3.65;1.35;;;;;;;21.72;74.64;98583.38;15277785;19;20022;-48
2023/06/11 08:19:38;;;;;;;2.60;1.42;;;;;;;21.90;70.73;98588.84;15272523;19;20489;-48
2023/06/11 08:25:03;;;;;;;3.08;1.40;;;;;;;22.09;70.59;98589.63;15272655;19;20014;-52
2023/06/11 08:30:28;;;;;;;2.15;1.30;;;;;;;22.24;66.35;98589.19;15277062;19;20030;-47
2023/06/11 08:35:56;;;;;;;4.18;1.40;;;;;;;22.42;62.73;98593.81;15276465;19;20014;-49
2023/06/11 08:41:22;;;;;;;4.97;1.40;;;;;;;22.59;65.00;98604.16;15279293;19;20054;-48
2023/06/11 08:46:48;;;;;;;2.95;1.42;;;;;;;22.69;64.79;98593.41;15275970;19;20355;-48
2023/06/11 08:52:15;;;;;;;4.28;1.30;;;;;;;22.87;65.01;98588.91;15270487;19;20070;-50
2023/06/11 08:57:40;;;;;;;2.47;1.30;;;;;;;23.01;59.25;98590.34;15271296;19;20015;-48
2023/06/11 09:03:05;;;;;;;5.07;1.40;;;;;;;23.16;55.56;98595.38;15277985;19;20018;-48
2023/06/11 09:08:33;;;;;;;1.75;1.30;;;;;;;23.25;52.44;98595.84;15276403;19;20078;-48
2023/06/11 09:13:59;;;;;;;2.67;1.17;;;;;;;23.36;50.49;98585.94;15275421;19;20025;-48
2023/06/11 09:19:24;;;;;;;2.22;1.10;;;;;;;23.48;46.48;98584.00;15291077;19;20078;-50
2023/06/11 09:24:52;;;;;;;3.10;1.00;;;;;;;23.59;49.79;98586.97;15280540;19;20018;-48
2023/06/11 09:30:20;;;;;;;6.10;1.10;;;;;;;23.68;43.37;98585.50;15284304;19;20033;-52
2023/06/11 09:35:52;;;;;;;5.38;1.13;;;;;;;23.79;43.47;98592.06;15287097;19;20037;-49
2023/06/11 09:41:20;;;;;;;2.38;1.00;;;;;;;23.86;44.24;98590.00;15284456;19;20413;-49
2023/06/11 09:46:44;;;;;;;4.63;1.00;;;;;;;24.06;43.95;98594.25;15281308;19;20573;-48
2023/06/11 09:52:10;;;;;;;2.33;1.10;;;;;;;24.15;42.42;98581.81;15285626;19;20090;-50
2023/06/11 09:57:40;;;;;;;8.23;1.00;;;;;;;24.32;43.67;98592.84;15282740;19;20020;-49
2023/06/11 10:03:04;;;;;;;3.05;1.30;;;;;;;24.45;41.14;98594.44;15281668;19;20025;-50
2023/06/11 10:08:31;;;;;;;4.05;0.95;;;;;;;24.53;40.88;98605.03;15288407;19;20013;-51
2023/06/11 10:14:03;;;;;;;5.50;1.10;;;;;;;24.55;40.13;98591.88;15285548;19;20021;-47
2023/06/11 10:19:43;;;;;;;4.65;1.20;;;;;;;24.58;42.47;98588.63;15285636;19;20375;-48
2023/06/11 10:25:08;;;;;;;1.60;1.00;;;;;;;24.81;44.19;98592.34;15277300;19;20021;-47
2023/06/11 10:30:36;;;;;;;2.38;1.10;;;;;;;24.89;42.44;98585.56;15279692;19;20028;-47
2023/06/11 10:36:03;;;;;;;2.17;1.05;;;;;;;24.95;42.73;98584.56;15279405;19;20016;-47
2023/06/11 10:41:37;;;;;;;5.05;1.58;;;;;;;25.03;43.38;98588.81;15227232;19;20022;-48
2023/06/11 10:47:05;;;;;;;2.42;1.20;;;;;;;25.20;42.82;98581.38;15283741;19;20014;-50
2023/06/11 10:52:30;;;;;;;3.40;1.40;;;;;;;25.33;44.91;98584.84;15282024;19;20706;-49
2023/06/11 10:57:54;;;;;;;1.75;1.10;;;;;;;25.37;44.07;98574.97;15275369;19;20641;-46
2023/06/11 11:03:22;;;;;;;2.70;1.08;;;;;;;25.46;43.77;98570.69;15283674;19;20017;-50
2023/06/11 11:08:46;;;;;;;6.07;1.20;;;;;;;25.40;41.51;98568.94;15281209;19;20039;-46
2023/06/11 11:14:11;;;;;;;2.33;1.10;;;;;;;25.52;44.17;98577.13;15279018;19;20070;-48
2023/06/11 11:19:38;;;;;;;3.47;1.10;;;;;;;25.67;43.69;98568.22;15281821;19;20018;-46
2023/06/11 11:25:07;;;;;;;4.75;1.10;;;;;;;25.88;44.34;98574.81;15278615;19;20021;-54
2023/06/11 11:30:32;;;;;;;1.83;1.13;;;;;;;25.92;43.43;98558.59;15272731;19;20021;-49
2023/06/11 11:36:02;;;;;;;2.92;0.90;;;;;;;26.05;40.42;98560.09;15273901;19;20360;-51
2023/06/11 11:41:26;;;;;;;3.72;1.10;;;;;;;26.06;39.74;98554.31;15279425;19;20744;-48
2023/06/11 11:47:04;;;;;;;2.63;1.00;;;;;;;26.06;41.22;98542.44;15264643;19;20094;-43
2023/06/11 11:52:31;;;;;;;2.50;1.00;;;;;;;26.23;38.25;98558.94;15279563;19;20013;-44
2023/06/11 11:57:57;;;;;;;3.65;1.17;;;;;;;26.37;40.43;98551.91;15275649;19;20030;-44
2023/06/11 12:03:24;;;;;;;3.17;1.00;;;;;;;26.56;41.70;98551.50;15272039;19;20378;-43
2023/06/11 12:08:52;;;;;;;3.83;0.95;;;;;;;26.84;43.07;98547.59;15273167;19;20029;-44
2023/06/11 12:14:16;;;;;;;2.08;1.08;;;;;;;27.00;43.25;98542.19;15277205;19;20485;-44
2023/06/11 12:19:41;;;;;;;1.73;1.20;;;;;;;27.19;43.67;98529.56;15278888;19;20013;-45
2023/06/11 12:25:10;;;;;;;2.78;1.15;;;;;;;27.46;42.27;98536.13;15273825;19;20617;-44
2023/06/11 12:30:40;;;;;;;2.75;1.10;;;;;;;27.62;42.61;98534.25;15274257;19;20025;-45
2023/06/11 12:36:04;;;;;;;2.22;0.80;;;;;;;27.83;42.52;98533.22;15269497;19;20017;-44
2023/06/11 12:41:32;;;;;;;4.63;1.00;;;;;;;27.77;42.39;98531.50;15271531;19;20036;-45
2023/06/11 12:46:56;;;;;;;1.60;1.00;;;;;;;27.82;41.78;98523.25;15273143;19;20025;-46
2023/06/11 12:52:22;;;;;;;1.42;1.00;;;;;;;27.96;42.83;98523.53;15284717;19;20049;-44
2023/06/11 12:57:49;;;;;;;1.77;1.10;;;;;;;28.18;42.56;98507.81;15286998;19;20010;-44
2023/06/11 13:03:15;;;;;;;2.17;1.00;;;;;;;28.06;43.07;98508.91;15288200;19;20019;-44
2023/06/11 13:08:46;;;;;;;1.40;1.00;;;;;;;27.92;42.45;98511.38;15283915;19;20015;-43
2023/06/11 13:14:15;;;;;;;1.33;0.98;;;;;;;28.14;41.75;98513.09;15282639;19;20011;-44
2023/06/11 13:19:40;;;;;;;1.48;0.90;;;;;;;28.36;42.74;98503.69;15288320;19;20038;-44
2023/06/11 13:25:06;;;;;;;2.80;1.00;;;;;;;28.68;41.03;98499.78;15285887;19;20021;-43
2023/06/11 13:30:34;;;;;;;2.25;0.90;;;;;;;28.67;41.89;98503.66;15284268;19;20090;-44
2023/06/11 13:35:59;;;;;;;1.83;0.80;;;;;;;29.07;42.24;98501.97;15285208;19;20517;-43
2023/06/11 13:41:25;;;;;;;4.90;0.93;;;;;;;28.91;41.23;98504.78;15281374;19;20440;-44
2023/06/11 13:47:00;;;;;;;2.50;0.93;;;;;;;29.30;40.18;98488.59;15277621;19;20041;-43
2023/06/11 13:52:26;;;;;;;1.75;0.90;;;;;;;29.64;39.71;98499.00;15284690;19;20081;-45
2023/06/11 13:57:52;;;;;;;2.60;0.98;;;;;;;29.63;39.30;98497.34;15279414;19;20717;-45
2023/06/11 14:03:21;;;;;;;1.83;0.95;;;;;;;29.67;39.19;98493.72;15280825;19;20006;-43
2023/06/11 14:08:45;;;;;;;3.42;1.15;;;;;;;29.68;39.46;98494.56;15282318;19;20010;-45
2023/06/11 14:14:12;;;;;;;3.05;0.88;;;;;;;29.82;38.10;98492.78;15277955;19;20018;-44
2023/06/11 14:19:44;;;;;;;3.55;0.90;;;;;;;29.94;39.12;98489.72;15278942;19;20082;-45
2023/06/11 14:25:09;;;;;;;5.10;0.80;;;;;;;30.47;38.01;98490.16;15281913;19;20021;-45
2023/06/11 14:30:34;;;;;;;2.38;1.10;;;;;;;30.57;37.71;98490.94;15284399;19;20082;-46
2023/06/11 14:36:04;;;;;;;1.33;0.90;;;;;;;30.41;37.10;98481.84;15283595;19;20039;-44
2023/06/11 14:41:29;;;;;;;1.27;0.90;;;;;;;30.22;38.42;98478.13;15285385;19;20028;-48
2023/06/11 14:46:53;;;;;;;3.53;0.90;;;;;;;30.48;37.38;98472.34;15273961;19;20024;-44
2023/06/11 14:52:22;;;;;;;6.53;0.90;;;;;;;30.64;37.41;98473.88;15276897;19;20024;-43
2023/06/11 14:57:46;;;;;;;2.85;0.90;;;;;;;30.69;36.58;98459.13;15281058;19;20006;-46
2023/06/11 15:03:11;;;;;;;1.42;0.90;;;;;;;30.75;37.65;98472.66;15279246;19;20020;-43
2023/06/11 15:08:39;;;;;;;2.63;0.90;;;;;;;30.96;36.69;98458.56;15273295;19;20077;-45
2023/06/11 15:14:04;;;;;;;2.30;0.80;;;;;;;31.01;36.79;98455.69;15272024;19;20033;-46
2023/06/11 15:19:30;;;;;;;2.10;1.00;;;;;;;31.05;36.72;98455.94;15266828;19;20006;-43
2023/06/11 15:24:57;;;;;;;2.75;0.90;;;;;;;31.28;35.86;98445.97;15267231;19;20501;-46
2023/06/11 15:30:22;;;;;;;1.23;0.80;;;;;;;30.85;35.73;98448.66;15271302;19;20730;-43
2023/06/11 15:35:47;;;;;;;3.50;0.80;;;;;;;30.85;35.90;98449.47;15271794;19;21094;-48
2023/06/11 15:41:14;;;;;;;2.92;1.00;;;;;;;30.92;35.63;98438.00;15270286;19;20029;-45
2023/06/11 15:46:40;;;;;;;2.53;0.80;;;;;;;31.08;35.33;98443.41;15265820;19;20485;-45
2023/06/11 15:52:05;;;;;;;3.22;0.80;;;;;;;30.79;35.36;98438.72;15264159;19;20019;-44
2023/06/11 15:57:33;;;;;;;2.83;0.82;;;;;;;30.94;35.75;98432.13;15263611;19;20018;-47
2023/06/11 16:02:57;;;;;;;1.95;0.90;;;;;;;31.02;35.60;98426.75;15270529;19;20037;-48
2023/06/11 16:08:22;;;;;;;1.88;0.80;;;;;;;31.07;35.28;98425.88;15263251;19;20078;-43
2023/06/11 16:13:49;;;;;;;1.75;0.77;;;;;;;31.00;34.12;98429.00;15274007;19;20021;-45
2023/06/11 16:19:15;;;;;;;0.98;0.77;;;;;;;30.96;35.27;98430.75;15276474;19;20419;-46
2023/06/11 16:24:40;;;;;;;2.30;0.93;;;;;;;30.93;34.51;98433.28;15274048;19;20018;-51
2023/06/11 16:30:07;;;;;;;3.25;0.90;;;;;;;31.08;34.22;98424.75;15282883;19;20014;-45
2023/06/11 16:35:32;;;;;;;1.52;0.70;;;;;;;31.11;34.65;98428.88;15278400;19;20775;-43
2023/06/11 16:40:57;;;;;;;2.28;0.80;;;;;;;30.89;36.26;98427.47;15282358;19;20710;-44
2023/06/11 16:46:24;;;;;;;1.52;0.90;;;;;;;30.75;37.06;98422.59;15279867;19;20455;-42
2023/06/11 16:51:49;;;;;;;3.00;0.85;;;;;;;30.55;37.49;98411.69;15281018;19;20513;-44
2023/06/11 16:57:14;;;;;;;1.40;0.80;;;;;;;30.29;38.32;98415.53;15280516;19;20029;-43
2023/06/11 17:02:41;;;;;;;2.30;0.80;;;;;;;30.03;37.20;98411.31;15278239;19;20912;-42
2023/06/11 17:08:06;;;;;;;1.75;0.82;;;;;;;29.82;37.32;98409.47;15276525;19;20019;-43
2023/06/11 17:13:30;;;;;;;2.78;0.95;;;;;;;29.35;37.20;98416.44;15281848;19;20339;-42
2023/06/11 17:18:58;;;;;;;0.85;0.80;;;;;;;29.25;37.82;98419.22;15280748;19;20014;-44
2023/06/11 17:24:24;;;;;;;2.17;1.00;;;;;;;29.20;38.29;98415.38;15272932;19;20010;-45
2023/06/11 17:29:51;;;;;;;1.23;0.80;;;;;;;29.10;38.29;98412.66;15278890;19;20409;-45
2023/06/11 17:35:18;;;;;;;3.10;1.00;;;;;;;28.86;38.56;98402.22;15271288;19;20092;-44
2023/06/11 17:40:43;;;;;;;3.20;0.82;;;;;;;28.75;39.08;98408.91;15276891;19;21345;-43
2023/06/11 17:46:10;;;;;;;1.58;1.00;;;;;;;28.68;39.19;98405.53;15275776;19;20011;-42
2023/06/11 17:51:45;;;;;;;0.98;0.82;;;;;;;28.51;38.55;98414.16;15277371;19;20018;-43
2023/06/11 17:57:11;;;;;;;1.38;0.90;;;;;;;28.11;38.19;98403.66;15268632;19;20023;-43
2023/06/11 18:02:36;;;;;;;1.70;0.80;;;;;;;27.99;39.10;98412.25;15283931;19;20015;-44
2023/06/11 18:08:04;;;;;;;0.88;0.75;;;;;;;27.67;39.73;98418.84;15277086;19;20633;-43
2023/06/11 18:13:29;;;;;;;1.83;0.90;;;;;;;27.49;40.13;98416.59;15278761;19;20482;-47
2023/06/11 18:18:54;;;;;;;2.85;0.90;;;;;;;27.23;40.01;98417.31;15277813;19;20358;-42
2023/06/11 18:24:22;;;;;;;1.40;1.10;;;;;;;26.98;40.42;98420.81;15277445;19;20078;-45
2023/06/11 18:29:47;;;;;;;1.85;1.10;;;;;;;26.66;40.09;98412.59;15270215;19;20089;-44
2023/06/11 18:35:12;;;;;;;3.72;1.08;;;;;;;26.33;40.65;98418.16;15267849;19;20098;-44
2023/06/11 18:40:40;;;;;;;1.17;0.90;;;;;;;25.90;41.64;98417.25;15144833;19;20011;-45
2023/06/11 18:46:05;;;;;;;1.15;1.00;;;;;;;25.52;42.33;98414.38;15273229;19;20683;-45
2023/06/11 18:51:30;;;;;;;2.63;1.10;;;;;;;25.11;43.39;98414.72;15273942;19;20455;-45
2023/06/11 18:56:58;;;;;;;1.98;1.10;;;;;;;24.71;43.98;98410.34;15288123;19;20014;-41
2023/06/11 19:02:27;;;;;;;1.15;1.05;;;;;;;24.31;44.76;98421.31;15283713;19;20069;-43
2023/06/11 19:07:51;;;;;;;2.22;1.20;;;;;;;24.07;44.61;98425.31;15277882;19;20061;-44
2023/06/11 19:13:19;;;;;;;2.42;1.20;;;;;;;23.80;45.65;98425.94;15283019;19;20013;-42
2023/06/11 19:18:43;;;;;;;1.63;1.30;;;;;;;23.56;45.79;98420.56;15282675;19;20010;-43
2023/06/11 19:24:09;;;;;;;2.35;1.17;;;;;;;23.31;46.75;98416.22;15279459;19;20022;-42
2023/06/11 19:29:37;;;;;;;1.65;1.10;;;;;;;23.06;47.32;98433.84;15280623;19;20376;-42
2023/06/11 19:35:05;;;;;;;1.35;1.23;;;;;;;22.84;48.11;98435.56;15284997;19;20009;-44
2023/06/11 19:40:34;;;;;;;1.65;1.25;;;;;;;22.62;48.02;98441.69;15276413;19;20014;-40
2023/06/11 19:46:01;;;;;;;1.65;1.20;;;;;;;22.43;49.32;98444.53;15258709;19;20467;-41
2023/06/11 19:51:28;;;;;;;1.83;1.25;;;;;;;22.24;49.48;98438.28;15279797;19;20018;-41
2023/06/11 19:56:53;;;;;;;2.28;1.40;;;;;;;21.98;50.77;98442.28;15274735;19;20471;-41
2023/06/11 20:02:20;;;;;;;3.13;1.40;;;;;;;21.72;51.20;98440.81;15277476;19;20006;-42
2023/06/11 20:07:45;;;;;;;1.50;1.30;;;;;;;21.46;52.13;98438.16;15271489;19;20040;-41
2023/06/11 20:13:10;;;;;;;1.30;1.20;;;;;;;21.32;52.39;98447.66;15275429;19;20014;-41
2023/06/11 20:18:38;;;;;;;1.83;1.50;;;;;;;21.16;53.50;98455.41;15276149;19;20015;-42
2023/06/11 20:24:02;;;;;;;1.58;1.30;;;;;;;21.02;53.71;98464.84;15277824;19;20046;-40
2023/06/11 20:29:27;;;;;;;2.58;1.50;;;;;;;20.86;55.40;98461.66;15276946;19;20011;-42
2023/06/11 20:34:54;;;;;;;1.48;1.38;;;;;;;20.70;55.77;98457.56;15277885;19;20351;-41
2023/06/11 20:40:19;;;;;;;4.15;1.40;;;;;;;20.58;57.41;98479.38;15273574;19;20010;-41
2023/06/11 20:45:43;;;;;;;2.53;1.40;;;;;;;20.50;57.23;98468.75;15271738;19;20029;-42
2023/06/11 20:51:13;;;;;;;1.60;1.27;;;;;;;20.41;59.54;98470.06;15277023;19;20019;-41
2023/06/11 20:56:38;;;;;;;3.85;1.50;;;;;;;20.32;59.51;98467.63;15275628;19;20015;-41
2023/06/11 21:02:04;;;;;;;3.47;1.52;;;;;;;20.25;60.83;98469.59;15276598;19;20014;-41
2023/06/11 21:07:31;;;;;;;1.83;1.30;;;;;;;20.16;62.46;98469.00;15274359;19;20015;-41
2023/06/11 21:12:56;;;;;;;1.42;1.23;;;;;;;20.08;63.81;98454.78;15278370;19;20013;-42
2023/06/11 21:18:20;;;;;;;4.32;1.42;;;;;;;20.01;64.97;98465.75;15281785;19;20466;-41
2023/06/11 21:23:48;;;;;;;1.63;1.52;;;;;;;19.92;67.91;98465.22;15290530;19;20018;-41
2023/06/11 21:29:13;;;;;;;1.30;1.20;;;;;;;19.84;68.26;98470.91;15283687;19;20018;-41
2023/06/11 21:34:38;;;;;;;1.42;1.33;;;;;;;19.75;70.48;98470.34;15290594;19;20096;-41
2023/06/11 21:40:05;;;;;;;1.60;1.50;;;;;;;19.69;72.09;98468.47;15292097;19;20025;-42
2023/06/11 21:45:31;;;;;;;2.40;1.55;;;;;;;19.54;77.22;98466.03;15281885;19;20699;-42
2023/06/11 21:50:56;;;;;;;1.40;1.30;;;;;;;19.43;79.04;98470.28;15285095;19;20021;-41
2023/06/11 21:56:24;;;;;;;2.17;1.40;;;;;;;19.32;86.68;98479.16;15287069;19;20081;-42
2023/06/11 22:01:49;;;;;;;2.75;1.70;;;;;;;19.17;87.49;98477.53;15286316;19;20018;-40
2023/06/11 22:07:17;;;;;;;1.50;1.40;;;;;;;19.08;90.00;98482.41;15284693;19;20061;-42
2023/06/11 22:12:45;;;;;;;2.65;1.70;;;;;;;18.99;91.38;98489.19;15287418;19;20010;-41
2023/06/11 22:18:10;;;;;;;2.13;1.52;;;;;;;18.83;99.18;98486.88;15277010;19;20020;-41
2023/06/11 22:23:35;;;;;;;2.72;1.40;;;;;;;18.73;96.47;98490.88;15281359;19;20016;-41
2023/06/11 22:29:10;;;;;;;1.75;1.40;;;;;;;18.68;99.52;98489.84;15282557;19;20018;-41
2023/06/11 22:34:35;;;;;;;1.98;1.58;;;;;;;18.60;99.66;98490.91;15285115;19;20029;-40
2023/06/11 22:40:01;;;;;;;1.60;1.50;;;;;;;18.44;100.00;98493.00;15284388;19;20091;-40
2023/06/11 22:45:28;;;;;;;2.00;1.80;;;;;;;18.31;100.00;98496.56;15283342;19;20033;-40
2023/06/11 22:50:53;;;;;;;2.03;1.70;;;;;;;18.24;100.00;98497.63;15279247;19;20014;-41
2023/06/11 22:56:19;;;;;;;3.35;1.80;;;;;;;18.17;100.00;98495.72;15278233;19;20753;-41
2023/06/11 23:01:48;;;;;;;2.25;1.80;;;;;;;18.12;100.00;98495.53;15283450;19;20392;-41
2023/06/11 23:07:17;;;;;;;1.70;1.60;;;;;;;18.07;100.00;98499.91;15280656;19;20011;-41
2023/06/11 23:12:42;;;;;;;2.10;1.90;;;;;;;18.00;100.00;98499.91;15283793;19;20015;-40
2023/06/11 23:18:11;;;;;;;3.75;1.83;;;;;;;17.95;100.00;98488.75;15280372;19;20083;-40
2023/06/11 23:23:37;;;;;;;4.00;2.00;;;;;;;17.89;100.00;98484.97;15280394;19;20021;-43
2023/06/11 23:29:03;;;;;;;2.97;2.17;;;;;;;17.84;100.00;98479.31;15274634;19;20918;-41
2023/06/11 23:34:31;;;;;;;3.35;2.25;;;;;;;17.76;100.00;98474.88;15280830;19;20018;-42
2023/06/11 23:39:56;;;;;;;1.88;1.77;;;;;;;17.66;100.00;98475.28;15281567;19;20356;-45
2023/06/11 23:45:22;;;;;;;1.95;1.70;;;;;;;17.61;100.00;98475.06;15281428;19;20929;-80
2023/06/11 23:50:49;;;;;;;2.35;1.90;;;;;;;17.55;100.00;98474.00;15292250;19;20031;-80
2023/06/11 23:56:14;;;;;;;2.80;1.80;;;;;;;17.47;100.00;98471.44;15297955;19;20002;-79
